sensor_id;sensor_type;location;lat;lon;timestamp;temperature;humidity
71942;DHT22;59997;53.300;-6.260;2022-10-17T00:01:31;11.77;79.91
71942;DHT22;59997;53.300;-6.260;2022-10-17T00:03:56;11.69;80.27
71942;DHT22;59997;53.300;-6.260;2022-10-17T00:06:22;11.71;79.83
71942;DHT22;59997;53.300;-6.260;2022-10-17T00:08:48;11.80;79.42
71942;DHT22;59997;53.300;-6.260;2022-10-17T00:11:20;11.92;78.45
71942;DHT22;59997;53.300;-6.260;2022-10-17T00:13:47;11.97;78.39
71942;DHT22;59997;53.300;-6.260;2022-10-17T00:16:14;11.99;78.72
71942;DHT22;59997;53.300;-6.260;2022-10-17T00:18:39;11.97;78.77
71942;DHT22;59997;53.300;-6.260;2022-10-17T00:21:05;11.97;79.23
71942;DHT22;59997;53.300;-6.260;2022-10-17T00:23:32;12.01;79.30
71942;DHT22;59997;53.300;-6.260;2022-10-17T00:25:59;12.26;79.28
71942;DHT22;59997;53.300;-6.260;2022-10-17T00:28:25;12.21;79.97
71942;DHT22;59997;53.300;-6.260;2022-10-17T00:30:58;12.19;79.44
71942;DHT22;59997;53.300;-6.260;2022-10-17T00:33:24;12.18;79.64
71942;DHT22;59997;53.300;-6.260;2022-10-17T00:35:50;12.29;78.87
71942;DHT22;59997;53.300;-6.260;2022-10-17T00:38:15;12.16;79.50
71942;DHT22;59997;53.300;-6.260;2022-10-17T00:40:41;12.08;79.93
71942;DHT22;59997;53.300;-6.260;2022-10-17T00:43:17;11.98;80.11
71942;DHT22;59997;53.300;-6.260;2022-10-17T00:45:42;12.02;79.28
71942;DHT22;59997;53.300;-6.260;2022-10-17T00:48:10;11.94;79.17
71942;DHT22;59997;53.300;-6.260;2022-10-17T00:50:38;11.91;79.34
71942;DHT22;59997;53.300;-6.260;2022-10-17T00:53:05;12.01;77.57
71942;DHT22;59997;53.300;-6.260;2022-10-17T00:55:36;11.98;77.81
71942;DHT22;59997;53.300;-6.260;2022-10-17T00:58:04;11.95;78.17
71942;DHT22;59997;53.300;-6.260;2022-10-17T01:00:31;11.89;78.44
71942;DHT22;59997;53.300;-6.260;2022-10-17T01:02:56;12.05;77.90
71942;DHT22;59997;53.300;-6.260;2022-10-17T01:05:23;12.11;77.98
71942;DHT22;59997;53.300;-6.260;2022-10-17T01:07:51;12.08;78.44
71942;DHT22;59997;53.300;-6.260;2022-10-17T01:10:17;12.11;78.43
71942;DHT22;59997;53.300;-6.260;2022-10-17T01:15:58;12.13;78.45
71942;DHT22;59997;53.300;-6.260;2022-10-17T01:18:45;12.21;77.78
71942;DHT22;59997;53.300;-6.260;2022-10-17T01:23:53;12.29;78.93
71942;DHT22;59997;53.300;-6.260;2022-10-17T01:32:14;12.19;78.61
71942;DHT22;59997;53.300;-6.260;2022-10-17T01:42:32;12.25;76.25
71942;DHT22;59997;53.300;-6.260;2022-10-17T01:47:33;12.39;74.22
71942;DHT22;59997;53.300;-6.260;2022-10-17T01:50:10;12.39;74.02
71942;DHT22;59997;53.300;-6.260;2022-10-17T01:52:41;12.36;74.33
71942;DHT22;59997;53.300;-6.260;2022-10-17T01:55:18;12.23;75.57
71942;DHT22;59997;53.300;-6.260;2022-10-17T01:57:48;12.06;76.59
71942;DHT22;59997;53.300;-6.260;2022-10-17T02:00:17;11.94;76.66
71942;DHT22;59997;53.300;-6.260;2022-10-17T02:02:44;12.04;76.35
71942;DHT22;59997;53.300;-6.260;2022-10-17T02:05:11;12.16;74.38
71942;DHT22;59997;53.300;-6.260;2022-10-17T02:07:36;12.25;74.09
71942;DHT22;59997;53.300;-6.260;2022-10-17T02:10:05;12.53;72.63
71942;DHT22;59997;53.300;-6.260;2022-10-17T02:13:05;12.50;72.68
71942;DHT22;59997;53.300;-6.260;2022-10-17T02:21:03;12.33;72.61
71942;DHT22;59997;53.300;-6.260;2022-10-17T02:23:41;12.30;72.97
71942;DHT22;59997;53.300;-6.260;2022-10-17T02:26:24;12.34;72.65
71942;DHT22;59997;53.300;-6.260;2022-10-17T02:29:12;12.28;72.88
71942;DHT22;59997;53.300;-6.260;2022-10-17T02:31:46;12.34;72.91
71942;DHT22;59997;53.300;-6.260;2022-10-17T02:34:18;12.40;72.74
71942;DHT22;59997;53.300;-6.260;2022-10-17T02:36:50;12.28;73.11
71942;DHT22;59997;53.300;-6.260;2022-10-17T02:39:19;12.36;73.35
71942;DHT22;59997;53.300;-6.260;2022-10-17T02:41:47;12.44;73.26
71942;DHT22;59997;53.300;-6.260;2022-10-17T02:44:14;12.60;72.85
71942;DHT22;59997;53.300;-6.260;2022-10-17T02:46:40;12.56;73.09
71942;DHT22;59997;53.300;-6.260;2022-10-17T02:51:48;12.53;73.58
71942;DHT22;59997;53.300;-6.260;2022-10-17T02:54:20;12.46;74.10
71942;DHT22;59997;53.300;-6.260;2022-10-17T02:57:07;12.58;72.95
71942;DHT22;59997;53.300;-6.260;2022-10-17T02:59:35;12.50;72.91
71942;DHT22;59997;53.300;-6.260;2022-10-17T03:02:05;12.46;72.85
71942;DHT22;59997;53.300;-6.260;2022-10-17T03:04:31;12.49;72.66
71942;DHT22;59997;53.300;-6.260;2022-10-17T03:06:56;12.50;72.83
71942;DHT22;59997;53.300;-6.260;2022-10-17T03:09:22;12.50;72.62
71942;DHT22;59997;53.300;-6.260;2022-10-17T03:11:47;12.51;72.58
71942;DHT22;59997;53.300;-6.260;2022-10-17T03:14:13;12.36;73.35
71942;DHT22;59997;53.300;-6.260;2022-10-17T03:16:38;12.28;73.74
71942;DHT22;59997;53.300;-6.260;2022-10-17T03:19:04;12.37;72.96
71942;DHT22;59997;53.300;-6.260;2022-10-17T03:21:29;12.29;73.38
71942;DHT22;59997;53.300;-6.260;2022-10-17T03:23:55;12.13;74.01
71942;DHT22;59997;53.300;-6.260;2022-10-17T03:26:21;12.08;73.56
71942;DHT22;59997;53.300;-6.260;2022-10-17T03:28:46;12.15;73.43
71942;DHT22;59997;53.300;-6.260;2022-10-17T03:31:15;12.08;74.09
71942;DHT22;59997;53.300;-6.260;2022-10-17T03:33:41;11.94;74.55
71942;DHT22;59997;53.300;-6.260;2022-10-17T03:36:08;11.99;74.57
71942;DHT22;59997;53.300;-6.260;2022-10-17T03:38:34;11.98;74.61
71942;DHT22;59997;53.300;-6.260;2022-10-17T03:41:01;11.80;75.41
71942;DHT22;59997;53.300;-6.260;2022-10-17T03:43:27;11.69;75.58
71942;DHT22;59997;53.300;-6.260;2022-10-17T03:45:52;11.71;75.36
71942;DHT22;59997;53.300;-6.260;2022-10-17T03:48:19;11.64;75.41
71942;DHT22;59997;53.300;-6.260;2022-10-17T03:50:44;11.69;75.36
71942;DHT22;59997;53.300;-6.260;2022-10-17T03:53:09;11.74;74.66
71942;DHT22;59997;53.300;-6.260;2022-10-17T03:55:36;11.84;74.24
71942;DHT22;59997;53.300;-6.260;2022-10-17T03:58:01;11.81;74.11
71942;DHT22;59997;53.300;-6.260;2022-10-17T04:00:27;11.98;72.92
71942;DHT22;59997;53.300;-6.260;2022-10-17T04:02:53;11.98;73.17
71942;DHT22;59997;53.300;-6.260;2022-10-17T04:05:18;11.89;73.91
71942;DHT22;59997;53.300;-6.260;2022-10-17T04:07:43;11.82;74.39
71942;DHT22;59997;53.300;-6.260;2022-10-17T04:10:09;11.78;75.08
71942;DHT22;59997;53.300;-6.260;2022-10-17T04:12:35;11.74;74.87
71942;DHT22;59997;53.300;-6.260;2022-10-17T04:15:01;11.70;74.60
71942;DHT22;59997;53.300;-6.260;2022-10-17T04:17:29;11.66;74.09
71942;DHT22;59997;53.300;-6.260;2022-10-17T04:19:55;11.78;73.63
71942;DHT22;59997;53.300;-6.260;2022-10-17T04:22:20;11.75;73.99
71942;DHT22;59997;53.300;-6.260;2022-10-17T04:24:46;11.74;73.42
71942;DHT22;59997;53.300;-6.260;2022-10-17T04:27:11;11.64;73.85
71942;DHT22;59997;53.300;-6.260;2022-10-17T04:29:36;11.59;74.33
71942;DHT22;59997;53.300;-6.260;2022-10-17T04:32:02;11.56;74.54
71942;DHT22;59997;53.300;-6.260;2022-10-17T04:34:28;11.59;74.29
71942;DHT22;59997;53.300;-6.260;2022-10-17T04:36:53;11.70;73.58
71942;DHT22;59997;53.300;-6.260;2022-10-17T04:39:19;11.66;73.50
71942;DHT22;59997;53.300;-6.260;2022-10-17T04:41:44;11.50;74.23
71942;DHT22;59997;53.300;-6.260;2022-10-17T04:44:11;11.47;74.67
71942;DHT22;59997;53.300;-6.260;2022-10-17T04:46:36;11.60;73.47
71942;DHT22;59997;53.300;-6.260;2022-10-17T04:49:02;11.63;73.76
71942;DHT22;59997;53.300;-6.260;2022-10-17T04:51:28;11.56;74.05
71942;DHT22;59997;53.300;-6.260;2022-10-17T04:53:53;11.44;74.21
71942;DHT22;59997;53.300;-6.260;2022-10-17T04:56:22;11.43;74.36
71942;DHT22;59997;53.300;-6.260;2022-10-17T04:58:48;11.36;74.70
71942;DHT22;59997;53.300;-6.260;2022-10-17T05:01:16;11.43;74.23
71942;DHT22;59997;53.300;-6.260;2022-10-17T05:03:42;11.46;74.14
71942;DHT22;59997;53.300;-6.260;2022-10-17T05:06:11;11.54;73.46
71942;DHT22;59997;53.300;-6.260;2022-10-17T05:08:37;11.50;73.48
71942;DHT22;59997;53.300;-6.260;2022-10-17T05:11:03;11.49;73.31
71942;DHT22;59997;53.300;-6.260;2022-10-17T05:13:30;11.60;73.26
71942;DHT22;59997;53.300;-6.260;2022-10-17T05:16:00;11.53;73.39
71942;DHT22;59997;53.300;-6.260;2022-10-17T05:18:26;11.42;73.71
71942;DHT22;59997;53.300;-6.260;2022-10-17T05:20:52;11.42;73.63
71942;DHT22;59997;53.300;-6.260;2022-10-17T05:23:17;11.53;72.86
71942;DHT22;59997;53.300;-6.260;2022-10-17T05:25:43;11.44;73.22
71942;DHT22;59997;53.300;-6.260;2022-10-17T05:28:08;11.33;73.79
71942;DHT22;59997;53.300;-6.260;2022-10-17T05:30:34;11.46;73.21
71942;DHT22;59997;53.300;-6.260;2022-10-17T05:33:01;11.47;73.07
71942;DHT22;59997;53.300;-6.260;2022-10-17T05:35:26;11.54;73.00
71942;DHT22;59997;53.300;-6.260;2022-10-17T05:37:52;11.49;72.75
71942;DHT22;59997;53.300;-6.260;2022-10-17T05:40:17;11.35;73.21
71942;DHT22;59997;53.300;-6.260;2022-10-17T05:42:47;11.42;73.00
71942;DHT22;59997;53.300;-6.260;2022-10-17T05:45:13;11.32;73.32
71942;DHT22;59997;53.300;-6.260;2022-10-17T05:47:39;11.16;74.30
71942;DHT22;59997;53.300;-6.260;2022-10-17T05:50:04;11.14;74.46
71942;DHT22;59997;53.300;-6.260;2022-10-17T05:52:30;11.23;73.76
71942;DHT22;59997;53.300;-6.260;2022-10-17T05:54:55;11.39;72.92
71942;DHT22;59997;53.300;-6.260;2022-10-17T05:57:24;11.62;72.19
71942;DHT22;59997;53.300;-6.260;2022-10-17T05:59:51;11.54;72.39
71942;DHT22;59997;53.300;-6.260;2022-10-17T06:02:16;11.33;72.90
71942;DHT22;59997;53.300;-6.260;2022-10-17T06:04:42;11.43;72.64
71942;DHT22;59997;53.300;-6.260;2022-10-17T06:07:11;11.49;72.90
71942;DHT22;59997;53.300;-6.260;2022-10-17T06:09:36;11.60;72.12
71942;DHT22;59997;53.300;-6.260;2022-10-17T06:12:02;11.57;72.26
71942;DHT22;59997;53.300;-6.260;2022-10-17T06:14:28;11.57;71.37
71942;DHT22;59997;53.300;-6.260;2022-10-17T06:16:54;11.59;72.30
71942;DHT22;59997;53.300;-6.260;2022-10-17T06:19:19;11.54;72.68
71942;DHT22;59997;53.300;-6.260;2022-10-17T06:21:45;11.53;72.82
71942;DHT22;59997;53.300;-6.260;2022-10-17T06:24:10;11.35;73.56
71942;DHT22;59997;53.300;-6.260;2022-10-17T06:26:36;11.37;73.09
71942;DHT22;59997;53.300;-6.260;2022-10-17T06:29:01;11.49;72.70
71942;DHT22;59997;53.300;-6.260;2022-10-17T06:31:27;11.43;73.14
71942;DHT22;59997;53.300;-6.260;2022-10-17T06:33:53;11.39;73.27
71942;DHT22;59997;53.300;-6.260;2022-10-17T06:36:18;11.32;73.39
71942;DHT22;59997;53.300;-6.260;2022-10-17T06:38:44;11.26;73.73
71942;DHT22;59997;53.300;-6.260;2022-10-17T06:41:13;11.23;73.89
71942;DHT22;59997;53.300;-6.260;2022-10-17T06:43:43;11.18;74.12
71942;DHT22;59997;53.300;-6.260;2022-10-17T06:46:12;11.19;74.10
71942;DHT22;59997;53.300;-6.260;2022-10-17T06:48:38;11.32;73.91
71942;DHT22;59997;53.300;-6.260;2022-10-17T06:51:05;11.21;74.18
71942;DHT22;59997;53.300;-6.260;2022-10-17T06:53:33;11.16;74.66
71942;DHT22;59997;53.300;-6.260;2022-10-17T06:55:59;11.15;74.36
71942;DHT22;59997;53.300;-6.260;2022-10-17T06:58:31;11.18;74.35
71942;DHT22;59997;53.300;-6.260;2022-10-17T07:01:06;11.14;74.37
71942;DHT22;59997;53.300;-6.260;2022-10-17T07:03:32;11.12;74.41
71942;DHT22;59997;53.300;-6.260;2022-10-17T07:05:58;11.22;73.78
71942;DHT22;59997;53.300;-6.260;2022-10-17T07:08:23;11.25;74.07
71942;DHT22;59997;53.300;-6.260;2022-10-17T07:10:49;11.23;73.94
71942;DHT22;59997;53.300;-6.260;2022-10-17T07:13:15;11.15;74.86
71942;DHT22;59997;53.300;-6.260;2022-10-17T07:15:40;11.18;74.52
71942;DHT22;59997;53.300;-6.260;2022-10-17T07:18:06;11.19;74.58
71942;DHT22;59997;53.300;-6.260;2022-10-17T07:20:32;11.33;74.41
71942;DHT22;59997;53.300;-6.260;2022-10-17T07:22:57;11.26;74.83
71942;DHT22;59997;53.300;-6.260;2022-10-17T07:25:23;11.22;74.91
71942;DHT22;59997;53.300;-6.260;2022-10-17T07:27:49;11.25;74.89
71942;DHT22;59997;53.300;-6.260;2022-10-17T07:30:15;11.42;73.98
71942;DHT22;59997;53.300;-6.260;2022-10-17T07:32:41;11.42;74.02
71942;DHT22;59997;53.300;-6.260;2022-10-17T07:35:08;11.46;73.89
71942;DHT22;59997;53.300;-6.260;2022-10-17T07:37:34;11.50;73.51
71942;DHT22;59997;53.300;-6.260;2022-10-17T07:39:59;11.59;73.26
71942;DHT22;59997;53.300;-6.260;2022-10-17T07:42:25;11.53;73.47
71942;DHT22;59997;53.300;-6.260;2022-10-17T07:44:52;11.60;72.73
71942;DHT22;59997;53.300;-6.260;2022-10-17T07:47:18;11.67;73.01
71942;DHT22;59997;53.300;-6.260;2022-10-17T07:49:43;11.62;73.00
71942;DHT22;59997;53.300;-6.260;2022-10-17T07:52:10;11.64;72.62
71942;DHT22;59997;53.300;-6.260;2022-10-17T07:54:37;11.64;72.61
71942;DHT22;59997;53.300;-6.260;2022-10-17T07:57:02;11.69;71.99
71942;DHT22;59997;53.300;-6.260;2022-10-17T07:59:28;11.84;71.73
71942;DHT22;59997;53.300;-6.260;2022-10-17T08:01:55;11.81;71.77
71942;DHT22;59997;53.300;-6.260;2022-10-17T08:04:20;11.81;72.19
71942;DHT22;59997;53.300;-6.260;2022-10-17T08:06:46;11.87;72.26
71942;DHT22;59997;53.300;-6.260;2022-10-17T08:09:12;11.98;72.26
71942;DHT22;59997;53.300;-6.260;2022-10-17T08:11:37;12.04;71.89
71942;DHT22;59997;53.300;-6.260;2022-10-17T08:14:03;12.16;71.33
71942;DHT22;59997;53.300;-6.260;2022-10-17T08:16:29;12.26;70.62
71942;DHT22;59997;53.300;-6.260;2022-10-17T08:18:54;12.46;70.10
71942;DHT22;59997;53.300;-6.260;2022-10-17T08:21:20;12.58;69.74
71942;DHT22;59997;53.300;-6.260;2022-10-17T08:23:45;12.80;69.31
71942;DHT22;59997;53.300;-6.260;2022-10-17T08:26:12;12.78;69.20
71942;DHT22;59997;53.300;-6.260;2022-10-17T08:28:41;12.46;71.09
71942;DHT22;59997;53.300;-6.260;2022-10-17T08:31:09;12.34;71.50
71942;DHT22;59997;53.300;-6.260;2022-10-17T08:33:36;12.54;70.29
71942;DHT22;59997;53.300;-6.260;2022-10-17T08:36:03;12.74;70.01
71942;DHT22;59997;53.300;-6.260;2022-10-17T08:38:29;12.92;69.88
71942;DHT22;59997;53.300;-6.260;2022-10-17T08:46:29;13.09;69.33
71942;DHT22;59997;53.300;-6.260;2022-10-17T08:48:58;12.96;70.20
71942;DHT22;59997;53.300;-6.260;2022-10-17T08:51:32;13.10;69.61
71942;DHT22;59997;53.300;-6.260;2022-10-17T08:56:34;13.48;68.18
71942;DHT22;59997;53.300;-6.260;2022-10-17T08:59:09;13.96;67.18
71942;DHT22;59997;53.300;-6.260;2022-10-17T09:01:54;13.83;65.91
71942;DHT22;59997;53.300;-6.260;2022-10-17T09:04:37;13.79;66.69
71942;DHT22;59997;53.300;-6.260;2022-10-17T09:10:01;13.67;67.88
71942;DHT22;59997;53.300;-6.260;2022-10-17T09:12:48;13.58;68.23
71942;DHT22;59997;53.300;-6.260;2022-10-17T09:18:25;14.36;65.89
71942;DHT22;59997;53.300;-6.260;2022-10-17T09:23:43;15.24;62.69
71942;DHT22;59997;53.300;-6.260;2022-10-17T09:26:11;15.86;61.36
71942;DHT22;59997;53.300;-6.260;2022-10-17T09:28:39;15.82;60.94
71942;DHT22;59997;53.300;-6.260;2022-10-17T09:31:20;15.59;61.16
71942;DHT22;59997;53.300;-6.260;2022-10-17T09:33:48;15.41;61.35
71942;DHT22;59997;53.300;-6.260;2022-10-17T09:36:20;15.67;60.68
71942;DHT22;59997;53.300;-6.260;2022-10-17T09:38:50;15.70;60.30
71942;DHT22;59997;53.300;-6.260;2022-10-17T09:41:26;15.75;60.12
71942;DHT22;59997;53.300;-6.260;2022-10-17T09:43:58;15.85;60.02
71942;DHT22;59997;53.300;-6.260;2022-10-17T09:46:36;16.55;58.52
71942;DHT22;59997;53.300;-6.260;2022-10-17T09:49:07;16.87;58.60
71942;DHT22;59997;53.300;-6.260;2022-10-17T09:51:36;17.04;57.23
71942;DHT22;59997;53.300;-6.260;2022-10-17T09:54:04;16.49;59.55
71942;DHT22;59997;53.300;-6.260;2022-10-17T09:57:03;16.28;59.89
71942;DHT22;59997;53.300;-6.260;2022-10-17T09:59:34;16.38;59.76
71942;DHT22;59997;53.300;-6.260;2022-10-17T10:04:56;15.90;60.09
71942;DHT22;59997;53.300;-6.260;2022-10-17T10:07:27;16.04;60.77
71942;DHT22;59997;53.300;-6.260;2022-10-17T10:09:53;16.53;59.44
71942;DHT22;59997;53.300;-6.260;2022-10-17T10:12:26;16.80;59.02
71942;DHT22;59997;53.300;-6.260;2022-10-17T10:14:52;16.91;58.54
71942;DHT22;59997;53.300;-6.260;2022-10-17T10:17:36;17.25;57.16
71942;DHT22;59997;53.300;-6.260;2022-10-17T10:20:32;17.27;57.34
71942;DHT22;59997;53.300;-6.260;2022-10-17T10:23:16;16.87;58.70
71942;DHT22;59997;53.300;-6.260;2022-10-17T10:25:56;16.81;58.10
71942;DHT22;59997;53.300;-6.260;2022-10-17T10:28:26;16.51;59.30
71942;DHT22;59997;53.300;-6.260;2022-10-17T10:30:53;16.14;59.64
71942;DHT22;59997;53.300;-6.260;2022-10-17T10:33:21;16.62;60.22
71942;DHT22;59997;53.300;-6.260;2022-10-17T10:35:57;16.53;58.92
71942;DHT22;59997;53.300;-6.260;2022-10-17T10:38:25;16.41;59.85
71942;DHT22;59997;53.300;-6.260;2022-10-17T10:40:56;16.24;59.57
71942;DHT22;59997;53.300;-6.260;2022-10-17T10:43:35;16.79;58.58
71942;DHT22;59997;53.300;-6.260;2022-10-17T10:46:05;17.03;58.84
71942;DHT22;59997;53.300;-6.260;2022-10-17T10:48:58;16.83;59.00
71942;DHT22;59997;53.300;-6.260;2022-10-17T10:56:49;17.36;56.41
71942;DHT22;59997;53.300;-6.260;2022-10-17T10:59:19;17.04;57.31
71942;DHT22;59997;53.300;-6.260;2022-10-17T11:04:33;17.03;58.43
71942;DHT22;59997;53.300;-6.260;2022-10-17T11:07:07;17.38;57.68
71942;DHT22;59997;53.300;-6.260;2022-10-17T11:17:35;16.81;57.93
71942;DHT22;59997;53.300;-6.260;2022-10-17T11:20:15;17.11;57.34
71942;DHT22;59997;53.300;-6.260;2022-10-17T11:22:48;17.36;57.57
71942;DHT22;59997;53.300;-6.260;2022-10-17T11:25:33;17.10;57.69
71942;DHT22;59997;53.300;-6.260;2022-10-17T11:28:00;17.34;57.45
71942;DHT22;59997;53.300;-6.260;2022-10-17T11:30:30;17.45;57.15
71942;DHT22;59997;53.300;-6.260;2022-10-17T11:33:00;17.08;56.89
71942;DHT22;59997;53.300;-6.260;2022-10-17T11:35:40;16.86;58.97
71942;DHT22;59997;53.300;-6.260;2022-10-17T11:40:58;16.86;57.53
71942;DHT22;59997;53.300;-6.260;2022-10-17T11:43:53;17.06;57.76
71942;DHT22;59997;53.300;-6.260;2022-10-17T11:46:23;17.22;56.59
71942;DHT22;59997;53.300;-6.260;2022-10-17T11:49:08;17.12;57.50
71942;DHT22;59997;53.300;-6.260;2022-10-17T11:51:53;17.04;57.72
71942;DHT22;59997;53.300;-6.260;2022-10-17T11:54:28;16.99;58.20
71942;DHT22;59997;53.300;-6.260;2022-10-17T12:06:03;17.57;56.79
71942;DHT22;59997;53.300;-6.260;2022-10-17T12:08:38;17.28;56.81
71942;DHT22;59997;53.300;-6.260;2022-10-17T12:18:43;16.80;58.57
71942;DHT22;59997;53.300;-6.260;2022-10-17T12:21:09;16.66;58.40
71942;DHT22;59997;53.300;-6.260;2022-10-17T12:23:34;17.01;58.23
71942;DHT22;59997;53.300;-6.260;2022-10-17T12:26:05;17.00;58.11
71942;DHT22;59997;53.300;-6.260;2022-10-17T12:28:42;17.10;57.42
71942;DHT22;59997;53.300;-6.260;2022-10-17T12:33:55;17.06;58.25
71942;DHT22;59997;53.300;-6.260;2022-10-17T12:46:54;17.12;58.16
71942;DHT22;59997;53.300;-6.260;2022-10-17T12:49:42;16.73;57.57
71942;DHT22;59997;53.300;-6.260;2022-10-17T12:54:50;16.60;57.65
71942;DHT22;59997;53.300;-6.260;2022-10-17T13:02:43;16.76;58.23
71942;DHT22;59997;53.300;-6.260;2022-10-17T13:05:31;16.56;58.48
71942;DHT22;59997;53.300;-6.260;2022-10-17T13:08:01;16.72;58.44
71942;DHT22;59997;53.300;-6.260;2022-10-17T13:10:30;16.56;58.33
71942;DHT22;59997;53.300;-6.260;2022-10-17T13:15:32;16.35;58.68
71942;DHT22;59997;53.300;-6.260;2022-10-17T13:17:59;16.45;59.42
71942;DHT22;59997;53.300;-6.260;2022-10-17T13:20:28;16.49;58.92
71942;DHT22;59997;53.300;-6.260;2022-10-17T13:22:55;16.52;60.03
71942;DHT22;59997;53.300;-6.260;2022-10-17T13:25:22;16.55;59.92
71942;DHT22;59997;53.300;-6.260;2022-10-17T13:27:49;16.44;59.66
71942;DHT22;59997;53.300;-6.260;2022-10-17T13:30:27;16.10;59.68
71942;DHT22;59997;53.300;-6.260;2022-10-17T13:32:53;16.14;59.80
71942;DHT22;59997;53.300;-6.260;2022-10-17T13:35:26;15.99;59.97
71942;DHT22;59997;53.300;-6.260;2022-10-17T13:37:52;15.93;60.57
71942;DHT22;59997;53.300;-6.260;2022-10-17T13:40:22;15.94;60.15
71942;DHT22;59997;53.300;-6.260;2022-10-17T13:42:48;15.96;59.81
71942;DHT22;59997;53.300;-6.260;2022-10-17T13:45:32;16.00;60.06
71942;DHT22;59997;53.300;-6.260;2022-10-17T13:48:02;16.06;60.20
71942;DHT22;59997;53.300;-6.260;2022-10-17T13:50:36;16.10;59.84
71942;DHT22;59997;53.300;-6.260;2022-10-17T13:55:36;15.90;59.38
71942;DHT22;59997;53.300;-6.260;2022-10-17T13:58:38;15.94;60.15
71942;DHT22;59997;53.300;-6.260;2022-10-17T14:01:05;15.96;59.48
71942;DHT22;59997;53.300;-6.260;2022-10-17T14:03:30;16.04;59.34
71942;DHT22;59997;53.300;-6.260;2022-10-17T14:08:24;16.22;59.24
71942;DHT22;59997;53.300;-6.260;2022-10-17T14:10:50;16.22;58.67
71942;DHT22;59997;53.300;-6.260;2022-10-17T14:13:25;16.01;58.07
71942;DHT22;59997;53.300;-6.260;2022-10-17T14:15:53;16.08;59.68
71942;DHT22;59997;53.300;-6.260;2022-10-17T14:18:24;16.07;59.14
71942;DHT22;59997;53.300;-6.260;2022-10-17T14:20:50;16.07;59.50
71942;DHT22;59997;53.300;-6.260;2022-10-17T14:23:28;16.00;60.00
71942;DHT22;59997;53.300;-6.260;2022-10-17T14:26:14;16.08;59.98
71942;DHT22;59997;53.300;-6.260;2022-10-17T14:28:44;16.11;60.16
71942;DHT22;59997;53.300;-6.260;2022-10-17T14:31:28;16.17;60.31
71942;DHT22;59997;53.300;-6.260;2022-10-17T14:33:55;16.08;60.37
71942;DHT22;59997;53.300;-6.260;2022-10-17T14:36:33;16.08;60.28
71942;DHT22;59997;53.300;-6.260;2022-10-17T14:38:59;15.96;59.96
71942;DHT22;59997;53.300;-6.260;2022-10-17T14:41:28;16.06;61.83
71942;DHT22;59997;53.300;-6.260;2022-10-17T14:44:01;16.10;60.96
71942;DHT22;59997;53.300;-6.260;2022-10-17T14:46:27;16.06;60.93
71942;DHT22;59997;53.300;-6.260;2022-10-17T14:49:02;16.07;60.94
71942;DHT22;59997;53.300;-6.260;2022-10-17T14:51:29;16.10;61.00
71942;DHT22;59997;53.300;-6.260;2022-10-17T14:54:18;16.27;62.01
71942;DHT22;59997;53.300;-6.260;2022-10-17T14:56:49;16.11;61.23
71942;DHT22;59997;53.300;-6.260;2022-10-17T14:59:16;16.00;61.45
71942;DHT22;59997;53.300;-6.260;2022-10-17T15:01:50;15.99;61.48
71942;DHT22;59997;53.300;-6.260;2022-10-17T15:04:16;15.86;61.63
71942;DHT22;59997;53.300;-6.260;2022-10-17T15:06:41;15.70;62.77
71942;DHT22;59997;53.300;-6.260;2022-10-17T15:09:09;15.57;63.16
71942;DHT22;59997;53.300;-6.260;2022-10-17T15:11:35;15.47;62.29
71942;DHT22;59997;53.300;-6.260;2022-10-17T15:14:00;15.40;63.74
71942;DHT22;59997;53.300;-6.260;2022-10-17T15:16:30;15.34;63.39
71942;DHT22;59997;53.300;-6.260;2022-10-17T15:18:56;15.31;64.88
71942;DHT22;59997;53.300;-6.260;2022-10-17T15:21:23;15.38;64.61
71942;DHT22;59997;53.300;-6.260;2022-10-17T15:23:49;15.55;62.53
71942;DHT22;59997;53.300;-6.260;2022-10-17T15:26:18;15.63;62.59
71942;DHT22;59997;53.300;-6.260;2022-10-17T15:28:45;15.58;62.05
71942;DHT22;59997;53.300;-6.260;2022-10-17T15:31:14;15.42;62.01
71942;DHT22;59997;53.300;-6.260;2022-10-17T15:33:41;15.34;62.49
71942;DHT22;59997;53.300;-6.260;2022-10-17T15:38:46;15.00;63.42
71942;DHT22;59997;53.300;-6.260;2022-10-17T15:41:11;14.96;64.16
71942;DHT22;59997;53.300;-6.260;2022-10-17T15:43:37;14.85;64.69
71942;DHT22;59997;53.300;-6.260;2022-10-17T15:46:02;14.68;65.01
71942;DHT22;59997;53.300;-6.260;2022-10-17T15:48:29;14.60;64.84
71942;DHT22;59997;53.300;-6.260;2022-10-17T15:50:56;14.55;65.09
71942;DHT22;59997;53.300;-6.260;2022-10-17T15:53:21;14.41;66.24
71942;DHT22;59997;53.300;-6.260;2022-10-17T15:55:48;14.33;66.58
71942;DHT22;59997;53.300;-6.260;2022-10-17T15:58:16;14.26;66.82
71942;DHT22;59997;53.300;-6.260;2022-10-17T16:00:43;14.21;67.13
71942;DHT22;59997;53.300;-6.260;2022-10-17T16:03:09;14.21;67.33
71942;DHT22;59997;53.300;-6.260;2022-10-17T16:05:34;14.13;67.82
71942;DHT22;59997;53.300;-6.260;2022-10-17T16:08:00;14.16;67.26
71942;DHT22;59997;53.300;-6.260;2022-10-17T16:10:26;14.03;68.47
71942;DHT22;59997;53.300;-6.260;2022-10-17T16:12:52;13.95;69.03
71942;DHT22;59997;53.300;-6.260;2022-10-17T16:15:27;13.83;69.83
71942;DHT22;59997;53.300;-6.260;2022-10-17T16:17:55;13.74;70.25
71942;DHT22;59997;53.300;-6.260;2022-10-17T16:20:21;13.71;69.58
71942;DHT22;59997;53.300;-6.260;2022-10-17T16:22:48;13.78;69.69
71942;DHT22;59997;53.300;-6.260;2022-10-17T16:25:23;13.72;69.83
71942;DHT22;59997;53.300;-6.260;2022-10-17T16:27:51;13.62;70.64
71942;DHT22;59997;53.300;-6.260;2022-10-17T16:30:17;13.60;69.92
71942;DHT22;59997;53.300;-6.260;2022-10-17T16:32:43;13.53;70.96
71942;DHT22;59997;53.300;-6.260;2022-10-17T16:35:21;13.50;71.02
71942;DHT22;59997;53.300;-6.260;2022-10-17T16:37:47;13.57;70.64
71942;DHT22;59997;53.300;-6.260;2022-10-17T16:40:13;13.54;70.72
71942;DHT22;59997;53.300;-6.260;2022-10-17T16:42:40;13.41;71.16
71942;DHT22;59997;53.300;-6.260;2022-10-17T16:45:05;13.28;72.08
71942;DHT22;59997;53.300;-6.260;2022-10-17T16:47:31;13.27;71.61
71942;DHT22;59997;53.300;-6.260;2022-10-17T16:49:56;13.48;71.00
71942;DHT22;59997;53.300;-6.260;2022-10-17T16:52:22;13.46;70.92
71942;DHT22;59997;53.300;-6.260;2022-10-17T16:54:48;13.20;71.92
71942;DHT22;59997;53.300;-6.260;2022-10-17T16:57:14;13.02;72.47
71942;DHT22;59997;53.300;-6.260;2022-10-17T16:59:39;12.92;73.40
71942;DHT22;59997;53.300;-6.260;2022-10-17T17:02:05;12.93;73.01
71942;DHT22;59997;53.300;-6.260;2022-10-17T17:04:30;12.87;73.05
71942;DHT22;59997;53.300;-6.260;2022-10-17T17:06:56;12.92;72.82
71942;DHT22;59997;53.300;-6.260;2022-10-17T17:09:21;12.92;72.81
71942;DHT22;59997;53.300;-6.260;2022-10-17T17:11:47;12.69;73.64
71942;DHT22;59997;53.300;-6.260;2022-10-17T17:14:14;12.54;74.56
71942;DHT22;59997;53.300;-6.260;2022-10-17T17:16:39;12.53;74.48
71942;DHT22;59997;53.300;-6.260;2022-10-17T17:19:07;12.44;75.03
71942;DHT22;59997;53.300;-6.260;2022-10-17T17:21:33;12.47;74.87
71942;DHT22;59997;53.300;-6.260;2022-10-17T17:24:00;12.43;75.20